createdAt,value
2023-05-13T00:00:28.432Z,39.37
2023-05-13T00:06:10.459Z,38.42
2023-05-13T00:08:47.768Z,39.28
2023-05-13T00:11:26.480Z,40.78
2023-05-13T00:14:01.113Z,41.70
2023-05-13T00:17:01.435Z,40.81
2023-05-13T00:20:10.108Z,37.34
2023-05-13T00:23:29.030Z,38.02
2023-05-13T00:26:33.354Z,38.88
2023-05-13T00:29:19.390Z,39.27
2023-05-13T00:36:27.778Z,38.55
2023-05-13T00:39:54.248Z,39.02
2023-05-13T00:42:44.346Z,38.77
2023-05-13T00:49:11.811Z,38.48
2023-05-13T00:52:27.811Z,42.66
2023-05-13T00:55:31.486Z,40.75
2023-05-13T00:58:26.213Z,42.74
2023-05-13T01:01:42.707Z,38.70
2023-05-13T01:05:10.891Z,40.27
2023-05-13T01:08:25.536Z,38.32
2023-05-13T01:11:09.469Z,36.80
2023-05-13T01:14:16.626Z,36.26
2023-05-13T01:17:22.557Z,35.93
2023-05-13T01:19:56.407Z,36.21
2023-05-13T01:22:27.221Z,37.59
2023-05-13T01:25:14.062Z,34.38
2023-05-13T01:27:47.587Z,34.43
2023-05-13T01:30:32.157Z,34.67
2023-05-13T01:33:09.954Z,34.77
2023-05-13T01:35:53.300Z,35.61
2023-05-13T01:38:39.030Z,35.44
2023-05-13T01:41:15.402Z,34.82
2023-05-13T01:43:53.700Z,35.09
2023-05-13T01:46:59.084Z,35.88
2023-05-13T01:49:42.190Z,35.71
2023-05-13T01:52:19.766Z,36.21
2023-05-13T01:54:58.080Z,37.29
2023-05-13T01:57:58.944Z,35.33
2023-05-13T02:00:48.917Z,36.09
2023-05-13T02:03:28.748Z,32.99
2023-05-13T02:06:05.330Z,34.10
2023-05-13T02:08:44.101Z,36.11
2023-05-13T02:11:49.504Z,34.34
2023-05-13T02:14:23.552Z,35.06
2023-05-13T02:17:02.526Z,34.09
2023-05-13T02:19:45.489Z,34.77
2023-05-13T02:22:25.384Z,35.41
2023-05-13T02:24:58.927Z,35.69
2023-05-13T02:27:28.714Z,35.93
2023-05-13T02:30:15.855Z,36.68
2023-05-13T02:33:42.610Z,36.46
2023-05-13T02:36:19.281Z,36.90
2023-05-13T02:39:29.385Z,37.64
2023-05-13T02:42:22.280Z,38.53
2023-05-13T02:45:16.857Z,37.42
2023-05-13T02:48:15.522Z,38.48
2023-05-13T02:51:09.411Z,38.78
2023-05-13T03:07:41.641Z,41.40
2023-05-13T03:15:20.453Z,41.39
2023-05-13T03:17:25.829Z,42.19
2023-05-13T03:34:36.239Z,44.96
2023-05-13T03:38:37.739Z,45.35
2023-05-13T03:46:05.921Z,48.42
2023-05-13T03:48:38.314Z,47.26
2023-05-13T03:51:24.098Z,47.19
2023-05-13T03:54:02.622Z,47.22
2023-05-13T03:57:04.166Z,47.23
2023-05-13T04:00:10.615Z,48.02
2023-05-13T04:03:13.974Z,48.58
2023-05-13T04:05:47.034Z,51.62
2023-05-13T04:08:16.732Z,52.18
2023-05-13T04:10:51.340Z,51.61
2023-05-13T04:13:50.220Z,51.84
2023-05-13T04:16:28.707Z,51.98
2023-05-13T04:18:57.848Z,52.77
2023-05-13T04:21:26.788Z,53.02
2023-05-13T04:23:57.015Z,53.96
2023-05-13T04:26:29.515Z,54.04
2023-05-13T04:29:09.117Z,55.57
2023-05-13T04:31:38.579Z,58.56
2023-05-13T04:34:07.697Z,57.71
2023-05-13T04:36:43.205Z,57.99
2023-05-13T04:39:12.557Z,59.86
2023-05-13T04:41:42.728Z,60.36
2023-05-13T04:44:24.327Z,60.24
2023-05-13T04:46:59.582Z,61.10
2023-05-13T04:49:34.927Z,63.94
2023-05-13T04:52:10.393Z,62.38
2023-05-13T04:54:52.754Z,61.83
2023-05-13T04:57:22.203Z,62.28
2023-05-13T04:59:59.929Z,64.22
2023-05-13T05:02:50.857Z,65.75
2023-05-13T05:05:23.502Z,68.44
2023-05-13T05:08:13.353Z,71.99
2023-05-13T05:10:56.703Z,71.18
2023-05-13T05:13:29.479Z,70.26
2023-05-13T05:16:02.459Z,71.74
2023-05-13T05:18:40.600Z,73.35
2023-05-13T05:21:21.817Z,75.11
2023-05-13T05:24:06.606Z,75.17
2023-05-13T05:26:41.120Z,76.67
2023-05-13T05:29:16.187Z,80.32
2023-05-13T05:31:59.322Z,81.12
2023-05-13T05:34:38.656Z,82.72
2023-05-13T05:37:13.502Z,84.75
2023-05-13T05:39:46.938Z,86.30
2023-05-13T05:42:25.676Z,88.36
2023-05-13T05:44:59.056Z,94.63
2023-05-13T05:47:31.340Z,96.57
2023-05-13T05:50:01.753Z,99.62
2023-05-13T05:52:37.200Z,100.00
2023-05-13T05:55:12.632Z,100.00
2023-05-13T05:57:48.177Z,100.00
2023-05-13T06:00:27.051Z,100.00
2023-05-13T06:03:00.302Z,100.00
2023-05-13T06:05:29.888Z,100.00
2023-05-13T06:07:58.834Z,100.00
2023-05-13T06:10:27.978Z,100.00
2023-05-13T06:12:57.402Z,100.00
2023-05-13T06:15:26.514Z,100.00
2023-05-13T06:17:55.481Z,100.00
2023-05-13T06:20:24.833Z,100.00
2023-05-13T06:22:57.020Z,100.00
2023-05-13T06:25:31.335Z,100.00
2023-05-13T06:28:03.521Z,100.00
2023-05-13T06:30:36.004Z,100.00
2023-05-13T06:33:12.007Z,100.00
2023-05-13T06:35:41.637Z,100.00
2023-05-13T06:38:16.214Z,100.00
2023-05-13T06:40:50.492Z,100.00
2023-05-13T06:43:27.861Z,100.00
2023-05-13T06:46:03.180Z,100.00
2023-05-13T06:48:36.101Z,100.00
2023-05-13T06:51:06.837Z,100.00
2023-05-13T06:53:37.950Z,100.00
2023-05-13T06:56:12.883Z,100.00
2023-05-13T06:58:45.007Z,100.00
2023-05-13T07:01:15.956Z,100.00
2023-05-13T07:03:48.898Z,100.00
2023-05-13T07:06:24.426Z,100.00
2023-05-13T07:09:07.326Z,100.00
2023-05-13T07:11:41.116Z,100.00
2023-05-13T07:14:22.331Z,100.00
2023-05-13T07:17:03.374Z,100.00
2023-05-13T07:19:42.829Z,100.00
2023-05-13T07:22:13.137Z,100.00
2023-05-13T07:24:43.487Z,100.00
2023-05-13T07:27:15.701Z,100.00
2023-05-13T07:29:58.895Z,100.00
2023-05-13T07:32:32.873Z,100.00
2023-05-13T07:35:13.903Z,100.00
2023-05-13T07:37:44.240Z,100.00
2023-05-13T07:40:17.500Z,100.00
2023-05-13T07:42:55.818Z,100.00
2023-05-13T07:45:35.735Z,100.00
2023-05-13T07:48:21.660Z,100.00
2023-05-13T07:50:54.316Z,100.00
2023-05-13T07:53:26.663Z,100.00
2023-05-13T07:55:59.966Z,100.00
2023-05-13T07:58:41.963Z,100.00
2023-05-13T08:01:13.641Z,100.00
2023-05-13T08:03:47.338Z,100.00
2023-05-13T08:06:25.884Z,100.00
2023-05-13T08:08:57.662Z,100.00
2023-05-13T08:11:28.600Z,100.00
2023-05-13T08:14:01.033Z,100.00
2023-05-13T08:16:38.175Z,100.00
2023-05-13T08:19:13.202Z,100.00
2023-05-13T08:21:51.344Z,100.00
2023-05-13T08:24:37.556Z,100.00
2023-05-13T08:27:07.302Z,100.00
2023-05-13T08:29:54.052Z,100.00
2023-05-13T08:32:25.897Z,100.00
2023-05-13T08:34:56.492Z,100.00
2023-05-13T08:37:29.693Z,100.00
2023-05-13T08:40:03.441Z,100.00
2023-05-13T08:42:44.100Z,100.00
2023-05-13T08:45:24.028Z,100.00
2023-05-13T08:47:59.864Z,100.00
2023-05-13T08:50:40.330Z,100.00
2023-05-13T08:53:14.082Z,100.00
2023-05-13T08:55:44.414Z,100.00
2023-05-13T08:58:13.808Z,100.00
2023-05-13T09:00:43.648Z,100.00
2023-05-13T09:03:16.933Z,100.00
2023-05-13T09:05:46.685Z,100.00
2023-05-13T09:08:18.097Z,100.00
2023-05-13T09:10:47.862Z,100.00
2023-05-13T09:13:19.998Z,100.00
2023-05-13T09:15:52.684Z,100.00
2023-05-13T09:18:24.683Z,100.00
2023-05-13T09:20:53.975Z,100.00
2023-05-13T09:23:25.296Z,100.00
2023-05-13T09:25:57.332Z,100.00
2023-05-13T09:28:27.286Z,100.00
2023-05-13T09:31:00.272Z,100.00
2023-05-13T09:33:34.847Z,100.00
2023-05-13T09:36:06.756Z,100.00
2023-05-13T09:38:40.138Z,100.00
2023-05-13T09:41:20.996Z,100.00
2023-05-13T09:43:51.793Z,100.00
2023-05-13T09:46:28.750Z,100.00
2023-05-13T09:49:01.003Z,100.00
2023-05-13T09:51:33.653Z,100.00
2023-05-13T09:54:12.856Z,100.00
2023-05-13T09:56:44.593Z,100.00
2023-05-13T09:59:13.995Z,100.00
2023-05-13T10:01:44.880Z,100.00
2023-05-13T10:04:26.183Z,100.00
2023-05-13T10:07:04.242Z,100.00
2023-05-13T10:09:38.288Z,100.00
2023-05-13T10:12:09.867Z,100.00
2023-05-13T10:14:43.541Z,100.00
2023-05-13T10:17:27.483Z,100.00
2023-05-13T10:19:59.807Z,100.00
2023-05-13T10:22:31.752Z,100.00
2023-05-13T10:25:06.163Z,100.00
2023-05-13T10:27:35.804Z,100.00
2023-05-13T10:30:11.168Z,100.00
2023-05-13T10:32:42.005Z,100.00
2023-05-13T10:35:15.170Z,100.00
2023-05-13T10:38:05.975Z,100.00
2023-05-13T10:41:02.373Z,100.00
2023-05-13T10:43:40.171Z,100.00
2023-05-13T10:46:14.595Z,100.00
2023-05-13T10:48:49.143Z,100.00
2023-05-13T10:51:23.792Z,100.00
2023-05-13T10:53:55.062Z,100.00
2023-05-13T10:56:29.368Z,100.00
2023-05-13T10:59:13.042Z,100.00
2023-05-13T11:01:49.799Z,100.00
2023-05-13T11:04:24.662Z,100.00
2023-05-13T11:06:54.451Z,100.00
2023-05-13T11:09:29.469Z,100.00
2023-05-13T11:12:04.473Z,100.00
2023-05-13T11:14:36.864Z,100.00
2023-05-13T11:17:05.986Z,100.00
2023-05-13T11:19:39.154Z,100.00
2023-05-13T11:22:27.093Z,100.00
2023-05-13T11:25:14.074Z,100.00
2023-05-13T11:27:43.894Z,100.00
2023-05-13T11:30:29.276Z,100.00
2023-05-13T11:33:13.128Z,100.00
2023-05-13T11:35:45.940Z,100.00
2023-05-13T11:38:25.192Z,100.00
2023-05-13T11:40:57.838Z,100.00
2023-05-13T11:43:34.070Z,100.00
2023-05-13T11:46:05.947Z,100.00
2023-05-13T11:48:37.089Z,100.00
2023-05-13T11:51:08.542Z,100.00
2023-05-13T11:53:40.487Z,100.00
2023-05-13T11:56:14.001Z,100.00
2023-05-13T11:58:43.489Z,100.00
2023-05-13T12:01:16.254Z,100.00
2023-05-13T12:03:47.837Z,100.00
2023-05-13T12:06:20.485Z,100.00
2023-05-13T12:08:49.704Z,100.00
2023-05-13T12:11:18.929Z,100.00
2023-05-13T12:13:51.291Z,100.00
2023-05-13T12:16:28.246Z,100.00
2023-05-13T12:19:05.331Z,100.00
2023-05-13T12:21:38.303Z,100.00
2023-05-13T12:24:31.088Z,100.00
2023-05-13T12:27:09.466Z,100.00
2023-05-13T12:29:44.704Z,100.00
2023-05-13T12:32:17.963Z,100.00
2023-05-13T12:34:50.630Z,100.00
2023-05-13T12:37:20.359Z,100.00
2023-05-13T12:39:50.463Z,100.00
2023-05-13T12:42:20.062Z,100.00
2023-05-13T12:44:49.789Z,100.00
2023-05-13T12:47:21.005Z,100.00
2023-05-13T12:49:59.170Z,100.00
2023-05-13T12:52:29.428Z,100.00
2023-05-13T12:55:02.159Z,100.00
2023-05-13T12:57:47.693Z,100.00
2023-05-13T13:00:17.495Z,100.00
2023-05-13T13:02:49.636Z,100.00
2023-05-13T13:05:28.013Z,100.00
2023-05-13T13:07:58.528Z,100.00
2023-05-13T13:10:28.519Z,100.00
2023-05-13T13:12:57.583Z,100.00
2023-05-13T13:15:26.564Z,100.00
2023-05-13T13:17:55.610Z,100.00
2023-05-13T13:20:24.678Z,100.00
2023-05-13T13:23:27.830Z,100.00
2023-05-13T13:26:07.841Z,100.00
2023-05-13T13:28:40.200Z,100.00
2023-05-13T13:31:31.628Z,100.00
2023-05-13T13:34:15.134Z,100.00
2023-05-13T13:36:44.340Z,100.00
2023-05-13T13:39:29.688Z,100.00
2023-05-13T13:42:09.172Z,100.00
2023-05-13T13:44:39.633Z,100.00
2023-05-13T13:47:11.243Z,100.00
2023-05-13T13:49:40.301Z,100.00
2023-05-13T13:52:20.542Z,100.00
2023-05-13T13:54:50.137Z,100.00
2023-05-13T13:57:21.368Z,100.00
2023-05-13T13:59:52.499Z,100.00
2023-05-13T14:02:48.050Z,100.00
2023-05-13T14:05:23.625Z,100.00
2023-05-13T14:07:54.883Z,100.00
2023-05-13T14:10:24.677Z,100.00
2023-05-13T14:12:54.468Z,100.00
2023-05-13T14:15:25.115Z,100.00
2023-05-13T14:17:54.840Z,100.00
2023-05-13T14:20:25.721Z,100.00
2023-05-13T14:22:54.712Z,100.00
2023-05-13T14:25:24.321Z,100.00
2023-05-13T14:27:54.065Z,100.00
2023-05-13T14:30:32.902Z,100.00
2023-05-13T14:33:35.689Z,100.00
2023-05-13T14:36:09.524Z,100.00
2023-05-13T14:38:55.032Z,100.00
2023-05-13T14:41:31.405Z,100.00
2023-05-13T14:44:12.014Z,100.00
2023-05-13T14:48:01.598Z,100.00
2023-05-13T14:50:54.694Z,100.00
2023-05-13T14:53:23.802Z,100.00
2023-05-13T14:56:01.688Z,100.00
2023-05-13T14:58:42.958Z,100.00
2023-05-13T15:04:36.131Z,100.00
2023-05-13T15:07:05.229Z,100.00
2023-05-13T15:09:34.285Z,100.00
2023-05-13T15:12:04.609Z,100.00
2023-05-13T15:14:33.624Z,100.00
2023-05-13T15:17:02.698Z,100.00
2023-05-13T15:19:32.374Z,100.00
2023-05-13T15:22:01.423Z,100.00
2023-05-13T15:24:30.278Z,100.00
2023-05-13T15:26:59.190Z,100.00
2023-05-13T15:29:28.766Z,100.00
2023-05-13T15:31:57.763Z,100.00
2023-05-13T15:34:26.836Z,100.00
2023-05-13T15:36:56.517Z,100.00
2023-05-13T15:39:25.391Z,100.00
2023-05-13T15:41:54.336Z,100.00
2023-05-13T15:44:23.395Z,100.00
2023-05-13T15:46:52.556Z,100.00
2023-05-13T15:49:21.644Z,100.00
2023-05-13T15:51:51.597Z,100.00
2023-05-13T15:54:20.641Z,100.00
2023-05-13T15:56:49.535Z,100.00
2023-05-13T15:59:18.646Z,100.00
2023-05-13T16:01:47.723Z,100.00
2023-05-13T16:04:18.739Z,100.00
2023-05-13T16:06:47.836Z,100.00
2023-05-13T16:09:16.868Z,100.00
2023-05-13T16:11:45.982Z,100.00
2023-05-13T16:14:16.058Z,100.00
2023-05-13T16:16:45.764Z,100.00
2023-05-13T16:19:24.935Z,100.00
2023-05-13T16:21:54.406Z,100.00
2023-05-13T16:24:23.459Z,100.00
2023-05-13T16:27:03.585Z,100.00
2023-05-13T16:29:59.179Z,100.00
2023-05-13T16:32:29.002Z,100.00
2023-05-13T16:34:58.488Z,100.00
2023-05-13T16:37:27.466Z,100.00
2023-05-13T16:39:56.632Z,100.00
2023-05-13T16:42:25.651Z,100.00
2023-05-13T16:44:54.633Z,100.00
2023-05-13T16:47:23.736Z,100.00
2023-05-13T16:49:52.883Z,100.00
2023-05-13T16:52:21.940Z,100.00
2023-05-13T16:54:51.146Z,100.00
2023-05-13T16:57:23.021Z,100.00
2023-05-13T16:59:52.088Z,100.00
2023-05-13T17:02:21.509Z,100.00
2023-05-13T17:04:53.636Z,100.00
2023-05-13T17:07:25.928Z,100.00
2023-05-13T17:09:54.993Z,100.00
2023-05-13T17:12:23.979Z,100.00
2023-05-13T17:14:53.573Z,100.00
2023-05-13T17:17:22.590Z,100.00
2023-05-13T17:19:51.659Z,100.00
2023-05-13T17:22:20.658Z,100.00
2023-05-13T17:24:49.706Z,100.00
2023-05-13T17:27:18.550Z,100.00
2023-05-13T17:29:47.568Z,100.00
2023-05-13T17:32:16.520Z,100.00
2023-05-13T17:34:47.026Z,100.00
2023-05-13T17:37:15.932Z,100.00
2023-05-13T17:39:45.036Z,100.00
2023-05-13T17:42:14.349Z,100.00
2023-05-13T17:44:43.216Z,100.00
2023-05-13T17:47:12.161Z,100.00
2023-05-13T17:49:41.076Z,99.40
2023-05-13T17:52:10.743Z,100.00
2023-05-13T17:54:39.621Z,100.00
2023-05-13T17:57:10.849Z,97.21
2023-05-13T17:59:40.070Z,97.16
2023-05-13T18:02:09.106Z,100.00
2023-05-13T18:04:38.200Z,94.98
2023-05-13T18:07:07.066Z,95.63
2023-05-13T18:09:35.989Z,87.07
2023-05-13T18:12:05.325Z,88.10
2023-05-13T18:14:34.519Z,91.54
2023-05-13T18:17:03.379Z,85.57
2023-05-13T18:19:32.403Z,76.86
2023-05-13T18:22:01.415Z,79.48
2023-05-13T18:24:30.322Z,72.15
2023-05-13T18:26:59.292Z,77.01
2023-05-13T18:29:28.382Z,77.55
2023-05-13T18:31:57.346Z,83.60
2023-05-13T18:34:26.554Z,77.13
2023-05-13T18:36:55.890Z,68.73
2023-05-13T18:39:24.907Z,68.99
2023-05-13T18:41:53.918Z,63.49
2023-05-13T18:44:22.879Z,63.78
2023-05-13T18:46:52.182Z,64.88
2023-05-13T18:49:21.373Z,64.89
2023-05-13T18:51:50.356Z,59.51
2023-05-13T18:54:19.281Z,62.41
2023-05-13T18:56:48.320Z,60.03
2023-05-13T18:59:17.526Z,61.96
2023-05-13T19:01:47.045Z,59.53
2023-05-13T19:04:16.512Z,61.32
2023-05-13T19:06:45.518Z,58.05
2023-05-13T19:09:15.224Z,58.67
2023-05-13T19:11:45.074Z,58.23
2023-05-13T19:14:14.120Z,55.84
2023-05-13T19:16:43.230Z,54.48
2023-05-13T19:19:12.471Z,57.94
2023-05-13T19:21:41.561Z,52.74
2023-05-13T19:24:10.693Z,53.83
2023-05-13T19:26:39.665Z,55.04
2023-05-13T19:29:08.888Z,56.52
2023-05-13T19:31:41.168Z,54.47
2023-05-13T19:34:10.651Z,54.34
2023-05-13T19:36:39.834Z,51.94
2023-05-13T19:39:09.607Z,52.50
2023-05-13T19:41:39.667Z,52.00
2023-05-13T19:44:08.892Z,51.94
2023-05-13T19:46:38.214Z,52.31
2023-05-13T19:49:07.557Z,50.99
2023-05-13T19:51:37.163Z,52.22
2023-05-13T19:54:07.749Z,53.60
2023-05-13T19:56:40.446Z,49.20
2023-05-13T19:59:09.575Z,46.96
2023-05-13T20:01:38.774Z,43.64
2023-05-13T20:04:08.192Z,49.41
2023-05-13T20:06:37.545Z,47.38
2023-05-13T20:09:06.808Z,49.90
2023-05-13T20:11:36.341Z,47.62
2023-05-13T20:14:06.160Z,48.27
2023-05-13T20:16:35.380Z,46.55
2023-05-13T20:19:05.028Z,45.81
2023-05-13T20:21:34.288Z,44.90
2023-05-13T20:24:07.045Z,45.41
2023-05-13T20:26:36.650Z,45.39
2023-05-13T20:29:06.028Z,43.83
2023-05-13T20:31:35.566Z,45.72
2023-05-13T20:34:06.154Z,46.32
2023-05-13T20:36:35.723Z,43.96
2023-05-13T20:39:04.913Z,44.70
2023-05-13T20:41:34.528Z,44.99
2023-05-13T20:44:03.930Z,44.97
2023-05-13T20:46:34.025Z,47.08
2023-05-13T20:49:03.433Z,44.30
2023-05-13T20:51:35.649Z,42.83
2023-05-13T20:54:04.910Z,43.71
2023-05-13T20:56:36.468Z,43.18
2023-05-13T20:59:06.230Z,41.50
2023-05-13T21:01:36.448Z,42.75
2023-05-13T21:04:06.853Z,42.08
2023-05-13T21:06:36.750Z,42.13
2023-05-13T21:09:09.509Z,41.56
2023-05-13T21:11:41.739Z,42.17
2023-05-13T21:14:11.146Z,42.10
2023-05-13T21:16:40.657Z,42.38
2023-05-13T21:19:10.123Z,42.93
2023-05-13T21:21:42.382Z,40.07
2023-05-13T21:24:12.105Z,41.96
2023-05-13T21:26:41.434Z,40.99
2023-05-13T21:29:12.472Z,41.35
2023-05-13T21:31:44.866Z,39.76
2023-05-13T21:34:14.139Z,39.80
2023-05-13T21:36:46.877Z,41.62
2023-05-13T21:39:16.294Z,40.29
2023-05-13T21:41:46.349Z,40.80
2023-05-13T21:44:15.805Z,39.76
2023-05-13T21:46:45.172Z,40.28
2023-05-13T21:49:14.973Z,38.79
2023-05-13T21:51:44.233Z,41.73
2023-05-13T21:54:16.760Z,39.58
2023-05-13T21:56:58.682Z,42.14
2023-05-13T21:59:31.603Z,41.76
2023-05-13T22:02:02.607Z,41.65
2023-05-13T22:04:32.187Z,39.57
2023-05-13T22:07:07.045Z,38.63
2023-05-13T22:09:44.490Z,40.62
2023-05-13T22:12:21.916Z,38.51
2023-05-13T22:14:54.086Z,38.46
2023-05-13T22:17:26.996Z,37.48
2023-05-13T22:19:56.643Z,35.20
2023-05-13T22:22:26.908Z,34.43
2023-05-13T22:25:01.303Z,35.98
2023-05-13T22:27:58.909Z,36.53
2023-05-13T22:30:45.613Z,36.30
2023-05-13T22:33:29.489Z,39.51
2023-05-13T22:35:59.357Z,35.41
2023-05-13T22:38:29.408Z,35.84
2023-05-13T22:40:59.338Z,36.87
2023-05-13T22:43:32.125Z,36.79
2023-05-13T22:46:02.592Z,35.82
2023-05-13T22:48:34.969Z,35.79
2023-05-13T22:51:06.843Z,36.24
2023-05-13T22:53:36.359Z,35.28
2023-05-13T22:59:03.322Z,34.97
2023-05-13T23:01:32.677Z,34.67
2023-05-13T23:04:01.810Z,35.38
2023-05-13T23:06:30.980Z,35.07
2023-05-13T23:09:01.855Z,34.28
2023-05-13T23:11:30.894Z,37.29
2023-05-13T23:14:00.273Z,33.77
2023-05-13T23:16:31.607Z,33.97
2023-05-13T23:19:00.766Z,33.25
2023-05-13T23:21:29.773Z,33.49
2023-05-13T23:24:00.874Z,33.72
2023-05-13T23:26:30.069Z,33.18
2023-05-13T23:28:59.166Z,33.42
2023-05-13T23:31:28.558Z,33.82
2023-05-13T23:33:57.955Z,34.09
2023-05-13T23:36:27.309Z,32.51
2023-05-13T23:38:56.486Z,32.38
2023-05-13T23:41:29.283Z,33.41
2023-05-13T23:43:58.829Z,32.70
2023-05-13T23:46:30.139Z,34.41
2023-05-13T23:48:59.894Z,34.05
2023-05-13T23:51:33.922Z,34.15
2023-05-13T23:54:04.346Z,34.19
2023-05-13T23:56:39.463Z,34.79
2023-05-13T23:59:09.479Z,33.07
